Time,TemperatureF,DewpointF,PressureIn,WindDirection,WindDirectionDegrees,WindSpeedMPH,WindSpeedGustMPH,Humidity,HourlyPrecipIn,Conditions,Clouds,dailyrainin,SoftwareType,DateUTC
2013-07-28 00:06:00,57.9,51.0,29.73,WNW,289,8.0,13.0,79,0.00,,,0.22,weatherlink.com 1.10,2013-07-28 04:06:00,
2013-07-28 00:21:00,58.0,51.0,29.73,WNW,296,3.0,10.0,78,0.00,,,0.22,weatherlink.com 1.10,2013-07-28 04:21:00,
2013-07-28 00:36:00,58.1,52.0,29.73,WNW,302,8.0,9.0,80,0.00,,,0.22,weatherlink.com 1.10,2013-07-28 04:36:00,
2013-07-28 00:51:00,58.3,53.0,29.72,NW,324,4.0,9.0,81,0.00,,,0.22,weatherlink.com 1.10,2013-07-28 04:51:00,
2013-07-28 01:06:00,58.4,53.0,29.72,NW,308,7.0,7.0,81,0.00,,,0.22,weatherlink.com 1.10,2013-07-28 05:06:00,
2013-07-28 01:21:00,58.2,52.0,29.72,WNW,289,2.0,7.0,81,0.00,,,0.00,weatherlink.com 1.10,2013-07-28 05:21:00,
2013-07-28 01:51:00,57.7,53.0,29.71,SW,234,6.0,6.0,84,0.00,,,0.00,weatherlink.com 1.10,2013-07-28 05:51:00,
2013-07-28 02:06:00,57.7,55.0,29.71,NW,311,3.0,8.0,89,0.00,,,0.00,weatherlink.com 1.10,2013-07-28 06:06:00,
2013-07-28 02:21:00,56.7,55.0,29.71,West,281,2.0,7.0,92,0.00,,,0.00,weatherlink.com 1.10,2013-07-28 06:21:00,
2013-07-28 02:36:00,56.2,55.0,29.70,NNW,340,2.0,5.0,94,0.00,,,0.00,weatherlink.com 1.10,2013-07-28 06:36:00,
2013-07-28 02:51:00,56.2,55.0,29.70,NNW,329,5.0,6.0,94,0.01,,,0.01,weatherlink.com 1.10,2013-07-28 06:51:00,
2013-07-28 03:06:00,56.0,54.0,29.71,NNW,344,6.0,9.0,92,0.01,,,0.01,weatherlink.com 1.10,2013-07-28 07:06:00,
2013-07-28 03:22:00,55.7,54.0,29.70,NW,306,7.0,7.0,93,0.01,,,0.01,weatherlink.com 1.10,2013-07-28 07:22:00,
2013-07-28 03:36:00,55.2,53.0,29.70,NNW,328,5.0,8.0,92,0.01,,,0.01,weatherlink.com 1.10,2013-07-28 07:36:00,
2013-07-28 03:52:00,55.2,53.0,29.70,North,355,5.0,8.0,91,0.00,,,0.01,weatherlink.com 1.10,2013-07-28 07:52:00,
2013-07-28 04:07:00,55.5,53.0,29.70,NNW,339,6.0,8.0,91,0.00,,,0.01,weatherlink.com 1.10,2013-07-28 08:07:00,
2013-07-28 04:22:00,55.8,52.0,29.70,NNW,341,1.0,10.0,88,0.00,,,0.01,weatherlink.com 1.10,2013-07-28 08:22:00,
2013-07-28 04:37:00,56.1,53.0,29.69,North,360,6.0,9.0,89,0.00,,,0.01,weatherlink.com 1.10,2013-07-28 08:37:00,
2013-07-28 04:52:00,56.2,53.0,29.69,NNW,338,6.0,11.0,90,0.00,,,0.01,weatherlink.com 1.10,2013-07-28 08:52:00,
2013-07-28 05:07:00,55.9,53.0,29.69,NNW,333,6.0,11.0,90,0.00,,,0.01,weatherlink.com 1.10,2013-07-28 09:07:00,
2013-07-28 05:22:00,55.5,53.0,29.69,NW,314,4.0,8.0,91,0.00,,,0.01,weatherlink.com 1.10,2013-07-28 09:22:00,
2013-07-28 05:37:00,55.6,53.0,29.69,NW,313,8.0,9.0,91,0.00,,,0.01,weatherlink.com 1.10,2013-07-28 09:37:00,
2013-07-28 05:52:00,55.7,53.0,29.69,NNW,333,7.0,11.0,90,0.00,,,0.01,weatherlink.com 1.10,2013-07-28 09:52:00,
2013-07-28 06:07:00,55.3,51.0,29.70,NW,326,5.0,6.0,86,0.00,,,0.01,weatherlink.com 1.10,2013-07-28 10:07:00,
2013-07-28 06:22:00,55.3,52.0,29.70,NNW,342,5.0,7.0,87,0.00,,,0.01,weatherlink.com 1.10,2013-07-28 10:22:00,
2013-07-28 06:37:00,55.2,52.0,29.71,NNW,331,6.0,9.0,88,0.00,,,0.01,weatherlink.com 1.10,2013-07-28 10:37:00,
2013-07-28 06:52:00,55.0,52.0,29.71,NNW,348,4.0,7.0,89,0.00,,,0.01,weatherlink.com 1.10,2013-07-28 10:52:00,
2013-07-28 07:07:00,55.1,52.0,29.71,NNW,343,1.0,6.0,89,0.00,,,0.01,weatherlink.com 1.10,2013-07-28 11:07:00,
2013-07-28 07:22:00,55.1,52.0,29.71,NNW,335,3.0,7.0,88,0.00,,,0.01,weatherlink.com 1.10,2013-07-28 11:22:00,
2013-07-28 07:37:00,55.5,52.0,29.71,NW,325,6.0,6.0,89,0.00,,,0.01,weatherlink.com 1.10,2013-07-28 11:37:00,
2013-07-28 07:52:00,56.1,52.0,29.71,WNW,294,4.0,7.0,87,0.00,,,0.01,weatherlink.com 1.10,2013-07-28 11:52:00,
2013-07-28 08:07:00,56.4,53.0,29.71,WNW,285,7.0,7.0,88,0.00,,,0.01,weatherlink.com 1.10,2013-07-28 12:07:00,
2013-07-28 08:22:00,56.3,53.0,29.71,WNW,285,7.0,9.0,88,0.00,,,0.01,weatherlink.com 1.10,2013-07-28 12:22:00,
2013-07-28 08:37:00,56.0,52.0,29.71,WNW,283,6.0,10.0,87,0.00,,,0.01,weatherlink.com 1.10,2013-07-28 12:37:00,
2013-07-28 08:52:00,56.2,52.0,29.72,West,279,8.0,11.0,87,0.00,,,0.01,weatherlink.com 1.10,2013-07-28 12:52:00,
2013-07-28 09:07:00,56.7,53.0,29.72,West,275,6.0,8.0,87,0.00,,,0.01,weatherlink.com 1.10,2013-07-28 13:07:00,
2013-07-28 09:22:00,57.3,53.0,29.72,WNW,283,6.0,10.0,85,0.00,,,0.01,weatherlink.com 1.10,2013-07-28 13:22:00,
2013-07-28 09:37:00,57.4,53.0,29.72,West,278,5.0,9.0,84,0.00,,,0.01,weatherlink.com 1.10,2013-07-28 13:37:00,
2013-07-28 09:52:00,57.9,52.0,29.72,NW,319,10.0,12.0,82,0.00,,,0.01,weatherlink.com 1.10,2013-07-28 13:52:00,
2013-07-28 10:07:00,58.1,52.0,29.72,West,281,6.0,11.0,80,0.00,,,0.01,weatherlink.com 1.10,2013-07-28 14:07:00,
2013-07-28 10:22:00,57.6,52.0,29.72,WNW,283,9.0,13.0,82,0.00,,,0.01,weatherlink.com 1.10,2013-07-28 14:22:00,
2013-07-28 10:37:00,58.6,52.0,29.72,WNW,294,9.0,14.0,79,0.00,,,0.01,weatherlink.com 1.10,2013-07-28 14:37:00,
2013-07-28 10:52:00,58.6,52.0,29.73,West,272,10.0,14.0,78,0.00,,,0.01,weatherlink.com 1.10,2013-07-28 14:52:00,
2013-07-28 11:07:00,59.8,52.0,29.73,WNW,283,8.0,13.0,74,0.01,,,0.02,weatherlink.com 1.10,2013-07-28 15:07:00,
2013-07-28 11:22:00,58.2,52.0,29.73,West,265,12.0,15.0,80,0.01,,,0.02,weatherlink.com 1.10,2013-07-28 15:22:00,
2013-07-28 11:37:00,58.7,53.0,29.74,WSW,244,10.0,13.0,80,0.01,,,0.02,weatherlink.com 1.10,2013-07-28 15:37:00,
2013-07-28 11:52:00,59.1,52.0,29.74,WNW,294,7.0,17.0,78,0.01,,,0.02,weatherlink.com 1.10,2013-07-28 15:52:00,
2013-07-28 12:07:00,59.0,53.0,29.74,West,269,9.0,17.0,80,0.00,,,0.02,weatherlink.com 1.10,2013-07-28 16:07:00,
2013-07-28 12:22:00,60.5,53.0,29.74,West,261,7.0,14.0,77,0.00,,,0.02,weatherlink.com 1.10,2013-07-28 16:22:00,
2013-07-28 12:37:00,60.4,53.0,29.74,SW,234,8.0,17.0,76,0.00,,,0.02,weatherlink.com 1.10,2013-07-28 16:37:00,
2013-07-28 12:52:00,59.9,53.0,29.75,WNW,295,11.0,19.0,79,0.00,,,0.02,weatherlink.com 1.10,2013-07-28 16:52:00,
2013-07-28 13:07:00,59.3,53.0,29.75,WNW,291,16.0,20.0,79,0.00,,,0.02,weatherlink.com 1.10,2013-07-28 17:07:00,
2013-07-28 13:22:00,60.4,53.0,29.75,West,265,8.0,19.0,77,0.00,,,0.02,weatherlink.com 1.10,2013-07-28 17:22:00,
2013-07-28 13:37:00,61.1,53.0,29.75,WNW,285,12.0,16.0,75,0.00,,,0.02,weatherlink.com 1.10,2013-07-28 17:37:00,
2013-07-28 13:52:00,60.9,53.0,29.74,West,281,9.0,17.0,75,0.00,,,0.02,weatherlink.com 1.10,2013-07-28 17:52:00,
2013-07-28 14:07:00,61.2,54.0,29.74,SW,217,11.0,16.0,77,0.00,,,0.02,weatherlink.com 1.10,2013-07-28 18:07:00,
2013-07-28 14:22:00,62.3,53.0,29.75,West,264,10.0,21.0,72,0.00,,,0.02,weatherlink.com 1.10,2013-07-28 18:22:00,
2013-07-28 14:37:00,62.4,53.0,29.74,WNW,284,8.0,20.0,72,0.00,,,0.02,weatherlink.com 1.10,2013-07-28 18:37:00,
2013-07-28 14:52:00,62.6,53.0,29.75,West,266,10.0,21.0,70,0.00,,,0.02,weatherlink.com 1.10,2013-07-28 18:52:00,
2013-07-28 15:07:00,62.8,52.0,29.75,WNW,284,18.0,23.0,69,0.00,,,0.02,weatherlink.com 1.10,2013-07-28 19:07:00,
2013-07-28 15:22:00,62.0,52.0,29.75,WNW,302,11.0,21.0,71,0.00,,,0.02,weatherlink.com 1.10,2013-07-28 19:22:00,
2013-07-28 15:37:00,61.1,53.0,29.76,West,264,8.0,19.0,75,0.00,,,0.02,weatherlink.com 1.10,2013-07-28 19:37:00,
2013-07-28 15:52:00,60.8,52.0,29.76,WSW,245,7.0,18.0,73,0.00,,,0.02,weatherlink.com 1.10,2013-07-28 19:52:00,
2013-07-28 16:07:00,61.1,53.0,29.76,WNW,294,14.0,17.0,75,0.00,,,0.02,weatherlink.com 1.10,2013-07-28 20:07:00,
2013-07-28 16:22:00,60.7,53.0,29.77,WNW,285,8.0,18.0,76,0.00,,,0.02,weatherlink.com 1.10,2013-07-28 20:22:00,
2013-07-28 16:37:00,60.2,53.0,29.77,West,277,14.0,18.0,78,0.00,,,0.02,weatherlink.com 1.10,2013-07-28 20:37:00,
2013-07-28 16:52:00,57.1,54.0,29.78,SSW,211,10.0,18.0,89,0.00,,,0.02,weatherlink.com 1.10,2013-07-28 20:52:00,
2013-07-28 17:07:00,57.6,55.0,29.78,SW,229,5.0,11.0,91,0.00,,,0.02,weatherlink.com 1.10,2013-07-28 21:07:00,
2013-07-28 17:22:00,57.2,55.0,29.79,WSW,256,9.0,18.0,92,0.00,,,0.02,weatherlink.com 1.10,2013-07-28 21:22:00,
2013-07-28 17:37:00,56.7,55.0,29.79,SW,236,9.0,14.0,94,0.00,,,0.02,weatherlink.com 1.10,2013-07-28 21:37:00,
2013-07-28 17:52:00,57.0,55.0,29.79,SW,234,14.0,19.0,93,0.00,,,0.02,weatherlink.com 1.10,2013-07-28 21:52:00,
2013-07-28 18:08:00,56.7,55.0,29.79,WSW,238,7.0,15.0,95,0.00,,,0.02,weatherlink.com 1.10,2013-07-28 22:08:00,
2013-07-28 18:23:00,57.4,56.0,29.79,SW,223,8.0,13.0,94,0.00,,,0.02,weatherlink.com 1.10,2013-07-28 22:23:00,
2013-07-28 18:38:00,57.7,56.0,29.79,SSW,213,7.0,11.0,94,0.00,,,0.02,weatherlink.com 1.10,2013-07-28 22:38:00,
2013-07-28 18:53:00,57.1,55.0,29.79,WSW,246,10.0,13.0,94,0.00,,,0.02,weatherlink.com 1.10,2013-07-28 22:53:00,
2013-07-28 19:08:00,57.5,56.0,29.79,WSW,239,8.0,14.0,94,0.00,,,0.02,weatherlink.com 1.10,2013-07-28 23:08:00,
2013-07-28 19:23:00,57.5,56.0,29.79,SW,225,6.0,13.0,94,0.00,,,0.02,weatherlink.com 1.10,2013-07-28 23:23:00,
2013-07-28 19:38:00,57.3,56.0,29.79,WSW,250,5.0,14.0,94,0.00,,,0.02,weatherlink.com 1.10,2013-07-28 23:38:00,
2013-07-28 19:53:00,57.0,56.0,29.80,WSW,238,5.0,9.0,95,0.00,,,0.02,weatherlink.com 1.10,2013-07-28 23:53:00,
2013-07-28 20:08:00,57.0,56.0,29.80,SW,229,6.0,8.0,96,0.00,,,0.02,weatherlink.com 1.10,2013-07-29 00:08:00,
2013-07-28 20:23:00,56.7,56.0,29.80,SW,219,3.0,7.0,96,0.00,,,0.02,weatherlink.com 1.10,2013-07-29 00:23:00,
2013-07-28 20:38:00,56.6,56.0,29.80,SW,217,4.0,6.0,96,0.00,,,0.02,weatherlink.com 1.10,2013-07-29 00:38:00,
2013-07-28 20:53:00,56.6,56.0,29.80,SSW,206,5.0,7.0,96,0.00,,,0.02,weatherlink.com 1.10,2013-07-29 00:53:00,
2013-07-28 21:08:00,56.6,56.0,29.80,SSW,208,5.0,7.0,96,0.00,,,0.02,weatherlink.com 1.10,2013-07-29 01:08:00,
2013-07-28 21:23:00,56.7,56.0,29.81,SSW,207,4.0,6.0,96,0.00,,,0.02,weatherlink.com 1.10,2013-07-29 01:23:00,
2013-07-28 21:38:00,56.7,55.0,29.81,SSW,205,3.0,5.0,95,0.00,,,0.02,weatherlink.com 1.10,2013-07-29 01:38:00,
2013-07-28 21:53:00,56.7,56.0,29.81,SSW,192,6.0,7.0,96,0.00,,,0.02,weatherlink.com 1.10,2013-07-29 01:53:00,
2013-07-28 22:08:00,56.7,55.0,29.82,SSW,196,3.0,6.0,95,0.00,,,0.02,weatherlink.com 1.10,2013-07-29 02:08:00,
2013-07-28 22:23:00,56.8,55.0,29.82,SSW,196,4.0,8.0,95,0.00,,,0.02,weatherlink.com 1.10,2013-07-29 02:23:00,
2013-07-28 22:38:00,56.8,55.0,29.83,SSW,209,2.0,6.0,95,0.00,,,0.02,weatherlink.com 1.10,2013-07-29 02:38:00,
2013-07-28 22:53:00,56.2,55.0,29.83,West,276,3.0,8.0,96,0.00,,,0.02,weatherlink.com 1.10,2013-07-29 02:53:00,
2013-07-28 23:08:00,55.8,55.0,29.83,West,278,5.0,8.0,96,0.01,,,0.03,weatherlink.com 1.10,2013-07-29 03:08:00,
2013-07-28 23:23:00,55.5,55.0,29.83,West,280,5.0,6.0,97,0.01,,,0.03,weatherlink.com 1.10,2013-07-29 03:23:00,
2013-07-28 23:38:00,55.4,55.0,29.84,WSW,247,0.0,4.0,97,0.01,,,0.03,weatherlink.com 1.10,2013-07-29 03:38:00,
2013-07-28 23:53:00,55.3,55.0,29.83,WSW,247,3.0,4.0,97,0.01,,,0.03,weatherlink.com 1.10,2013-07-29 03:53:00,